sensor_id;sensor_type;location;lat;lon;timestamp;temperature;humidity
14521;DHT22;7347;50.844;4.490;2022-12-11T10:52:12;3.50;99.90
14521;DHT22;7347;50.844;4.490;2022-12-11T10:54:45;3.40;99.90
14521;DHT22;7347;50.844;4.490;2022-12-11T10:57:14;3.50;99.90
14521;DHT22;7347;50.844;4.490;2022-12-11T10:59:45;3.30;99.90
14521;DHT22;7347;50.844;4.490;2022-12-11T11:02:18;3.30;99.90
14521;DHT22;7347;50.844;4.490;2022-12-11T11:04:47;3.40;99.90
14521;DHT22;7347;50.844;4.490;2022-12-11T11:07:19;3.30;99.90
14521;DHT22;7347;50.844;4.490;2022-12-11T11:09:46;3.40;99.90
14521;DHT22;7347;50.844;4.490;2022-12-11T11:12:18;3.60;99.90
14521;DHT22;7347;50.844;4.490;2022-12-11T11:14:57;3.70;99.90
14521;DHT22;7347;50.844;4.490;2022-12-11T11:17:24;3.70;99.90
14521;DHT22;7347;50.844;4.490;2022-12-11T11:19:52;3.70;99.90
14521;DHT22;7347;50.844;4.490;2022-12-11T11:22:20;3.70;99.90
14521;DHT22;7347;50.844;4.490;2022-12-11T11:24:52;3.70;99.90
14521;DHT22;7347;50.844;4.490;2022-12-11T11:27:27;3.80;99.90
14521;DHT22;7347;50.844;4.490;2022-12-11T11:29:57;3.80;99.90
14521;DHT22;7347;50.844;4.490;2022-12-11T11:32:30;3.80;99.90
14521;DHT22;7347;50.844;4.490;2022-12-11T11:35:12;3.70;99.90
14521;DHT22;7347;50.844;4.490;2022-12-11T11:37:44;3.70;99.90
14521;DHT22;7347;50.844;4.490;2022-12-11T11:40:16;3.80;99.90
14521;DHT22;7347;50.844;4.490;2022-12-11T11:42:48;3.80;99.90
14521;DHT22;7347;50.844;4.490;2022-12-11T11:45:21;3.80;99.90
14521;DHT22;7347;50.844;4.490;2022-12-11T11:47:57;3.90;99.90
14521;DHT22;7347;50.844;4.490;2022-12-11T11:50:29;4.00;99.90
14521;DHT22;7347;50.844;4.490;2022-12-11T11:53:04;4.00;99.90
14521;DHT22;7347;50.844;4.490;2022-12-11T11:55:39;4.10;99.90
14521;DHT22;7347;50.844;4.490;2022-12-11T11:58:13;3.80;99.90
14521;DHT22;7347;50.844;4.490;2022-12-11T12:00:41;3.80;99.90
14521;DHT22;7347;50.844;4.490;2022-12-11T12:03:10;3.80;99.90
14521;DHT22;7347;50.844;4.490;2022-12-11T12:05:44;3.80;99.90
14521;DHT22;7347;50.844;4.490;2022-12-11T12:08:19;3.80;99.90
14521;DHT22;7347;50.844;4.490;2022-12-11T12:10:55;3.80;99.90
14521;DHT22;7347;50.844;4.490;2022-12-11T12:13:30;3.90;99.90
14521;DHT22;7347;50.844;4.490;2022-12-11T12:16:02;3.80;99.90
14521;DHT22;7347;50.844;4.490;2022-12-11T12:18:36;3.90;99.90
14521;DHT22;7347;50.844;4.490;2022-12-11T12:21:12;4.10;99.90
14521;DHT22;7347;50.844;4.490;2022-12-11T12:24:00;4.20;99.90
14521;DHT22;7347;50.844;4.490;2022-12-11T12:26:32;4.30;99.90
14521;DHT22;7347;50.844;4.490;2022-12-11T12:29:09;4.40;99.90
14521;DHT22;7347;50.844;4.490;2022-12-11T12:31:52;4.40;99.90
14521;DHT22;7347;50.844;4.490;2022-12-11T12:34:29;4.50;99.90
14521;DHT22;7347;50.844;4.490;2022-12-11T12:37:06;4.60;99.90
14521;DHT22;7347;50.844;4.490;2022-12-11T12:39:43;4.70;99.90
14521;DHT22;7347;50.844;4.490;2022-12-11T12:42:25;4.70;99.90
14521;DHT22;7347;50.844;4.490;2022-12-11T12:44:58;4.60;99.90
14521;DHT22;7347;50.844;4.490;2022-12-11T12:47:27;4.40;99.90
14521;DHT22;7347;50.844;4.490;2022-12-11T12:49:57;4.30;99.90
14521;DHT22;7347;50.844;4.490;2022-12-11T12:52:29;4.30;99.90
14521;DHT22;7347;50.844;4.490;2022-12-11T12:55:02;4.10;99.90
14521;DHT22;7347;50.844;4.490;2022-12-11T12:57:45;4.00;99.90
14521;DHT22;7347;50.844;4.490;2022-12-11T13:00:28;3.90;99.90
14521;DHT22;7347;50.844;4.490;2022-12-11T13:02:56;3.80;99.90
14521;DHT22;7347;50.844;4.490;2022-12-11T13:05:25;3.60;99.90
14521;DHT22;7347;50.844;4.490;2022-12-11T13:07:54;3.60;99.90
14521;DHT22;7347;50.844;4.490;2022-12-11T13:10:26;3.50;99.90
14521;DHT22;7347;50.844;4.490;2022-12-11T13:12:54;3.60;99.90
14521;DHT22;7347;50.844;4.490;2022-12-11T13:15:27;3.70;99.90
14521;DHT22;7347;50.844;4.490;2022-12-11T13:17:54;3.80;99.90
14521;DHT22;7347;50.844;4.490;2022-12-11T13:20:24;3.70;99.90
14521;DHT22;7347;50.844;4.490;2022-12-11T13:22:55;3.60;99.90
14521;DHT22;7347;50.844;4.490;2022-12-11T13:25:29;3.70;99.90
14521;DHT22;7347;50.844;4.490;2022-12-11T13:28:07;3.60;99.90
14521;DHT22;7347;50.844;4.490;2022-12-11T13:30:34;3.60;99.90
14521;DHT22;7347;50.844;4.490;2022-12-11T13:33:03;3.60;99.90
14521;DHT22;7347;50.844;4.490;2022-12-11T13:35:32;3.50;99.90
14521;DHT22;7347;50.844;4.490;2022-12-11T13:38:03;3.70;99.90
14521;DHT22;7347;50.844;4.490;2022-12-11T13:40:38;3.50;99.90
14521;DHT22;7347;50.844;4.490;2022-12-11T13:43:16;3.60;99.90
14521;DHT22;7347;50.844;4.490;2022-12-11T13:45:47;3.70;99.90
14521;DHT22;7347;50.844;4.490;2022-12-11T13:48:18;3.70;99.90
14521;DHT22;7347;50.844;4.490;2022-12-11T13:50:47;3.80;99.90
14521;DHT22;7347;50.844;4.490;2022-12-11T13:53:16;3.70;99.90
14521;DHT22;7347;50.844;4.490;2022-12-11T13:55:45;3.70;99.90
14521;DHT22;7347;50.844;4.490;2022-12-11T13:58:17;3.80;99.90
14521;DHT22;7347;50.844;4.490;2022-12-11T14:00:55;3.90;99.90
14521;DHT22;7347;50.844;4.490;2022-12-11T14:03:26;3.90;99.90
14521;DHT22;7347;50.844;4.490;2022-12-11T14:05:53;4.00;99.90
14521;DHT22;7347;50.844;4.490;2022-12-11T14:08:23;4.00;99.90
14521;DHT22;7347;50.844;4.490;2022-12-11T14:10:54;4.00;99.90
14521;DHT22;7347;50.844;4.490;2022-12-11T14:13:23;4.10;99.90
14521;DHT22;7347;50.844;4.490;2022-12-11T14:15:52;4.10;99.90
14521;DHT22;7347;50.844;4.490;2022-12-11T14:18:21;4.10;99.90
14521;DHT22;7347;50.844;4.490;2022-12-11T14:20:53;4.10;99.90
14521;DHT22;7347;50.844;4.490;2022-12-11T14:23:22;4.10;99.90
14521;DHT22;7347;50.844;4.490;2022-12-11T14:25:55;4.10;99.90
14521;DHT22;7347;50.844;4.490;2022-12-11T14:28:23;4.20;99.90
14521;DHT22;7347;50.844;4.490;2022-12-11T14:30:55;4.20;99.90
14521;DHT22;7347;50.844;4.490;2022-12-11T14:33:25;4.10;99.90
14521;DHT22;7347;50.844;4.490;2022-12-11T14:35:54;4.10;99.90
14521;DHT22;7347;50.844;4.490;2022-12-11T14:38:24;4.00;99.90
14521;DHT22;7347;50.844;4.490;2022-12-11T14:41:00;4.10;99.90
14521;DHT22;7347;50.844;4.490;2022-12-11T14:43:30;4.00;99.90
14521;DHT22;7347;50.844;4.490;2022-12-11T14:46:00;4.10;99.90
14521;DHT22;7347;50.844;4.490;2022-12-11T14:48:31;4.10;99.90
14521;DHT22;7347;50.844;4.490;2022-12-11T14:51:01;4.10;99.90
14521;DHT22;7347;50.844;4.490;2022-12-11T14:53:33;4.10;99.90
14521;DHT22;7347;50.844;4.490;2022-12-11T14:56:05;4.00;99.90
14521;DHT22;7347;50.844;4.490;2022-12-11T14:58:37;4.00;99.90
14521;DHT22;7347;50.844;4.490;2022-12-11T15:01:20;3.80;99.90
14521;DHT22;7347;50.844;4.490;2022-12-11T15:03:48;3.80;99.90
14521;DHT22;7347;50.844;4.490;2022-12-11T15:06:22;3.90;99.90
14521;DHT22;7347;50.844;4.490;2022-12-11T15:08:50;3.90;99.90
14521;DHT22;7347;50.844;4.490;2022-12-11T15:11:18;3.90;99.90
14521;DHT22;7347;50.844;4.490;2022-12-11T15:13:50;3.90;99.90
14521;DHT22;7347;50.844;4.490;2022-12-11T15:16:18;3.80;99.90
14521;DHT22;7347;50.844;4.490;2022-12-11T15:18:47;3.80;99.90
14521;DHT22;7347;50.844;4.490;2022-12-11T15:21:15;3.90;99.90
14521;DHT22;7347;50.844;4.490;2022-12-11T15:23:49;3.80;99.90
14521;DHT22;7347;50.844;4.490;2022-12-11T15:26:18;3.90;99.90
14521;DHT22;7347;50.844;4.490;2022-12-11T15:28:45;3.70;99.90
14521;DHT22;7347;50.844;4.490;2022-12-11T15:31:24;3.70;99.90
14521;DHT22;7347;50.844;4.490;2022-12-11T15:33:52;3.80;99.90
14521;DHT22;7347;50.844;4.490;2022-12-11T15:36:23;3.90;99.90
14521;DHT22;7347;50.844;4.490;2022-12-11T15:38:51;3.90;99.90
14521;DHT22;7347;50.844;4.490;2022-12-11T15:41:19;3.80;99.90
14521;DHT22;7347;50.844;4.490;2022-12-11T15:43:49;3.90;99.90
14521;DHT22;7347;50.844;4.490;2022-12-11T15:46:16;3.90;99.90
14521;DHT22;7347;50.844;4.490;2022-12-11T15:48:43;3.90;99.90
14521;DHT22;7347;50.844;4.490;2022-12-11T15:51:10;3.80;99.90
14521;DHT22;7347;50.844;4.490;2022-12-11T15:53:37;3.70;99.90
14521;DHT22;7347;50.844;4.490;2022-12-11T15:56:04;3.80;99.90
14521;DHT22;7347;50.844;4.490;2022-12-11T15:58:33;3.80;99.90
14521;DHT22;7347;50.844;4.490;2022-12-11T16:01:00;3.90;99.90
14521;DHT22;7347;50.844;4.490;2022-12-11T16:03:27;3.80;99.90
14521;DHT22;7347;50.844;4.490;2022-12-11T16:05:54;3.80;99.90
14521;DHT22;7347;50.844;4.490;2022-12-11T16:08:22;3.90;99.90
14521;DHT22;7347;50.844;4.490;2022-12-11T16:10:51;3.90;99.90
14521;DHT22;7347;50.844;4.490;2022-12-11T16:13:19;3.90;99.90
14521;DHT22;7347;50.844;4.490;2022-12-11T16:15:48;3.80;99.90
14521;DHT22;7347;50.844;4.490;2022-12-11T16:18:17;3.80;99.90
14521;DHT22;7347;50.844;4.490;2022-12-11T16:20:45;3.90;99.90
14521;DHT22;7347;50.844;4.490;2022-12-11T16:23:13;4.00;99.90
